KSUW

Richard I Bong Airport

Superior, Wisconsin, USA
METAR KSUW 190655Z AUTO 24005KT 10SM CLR M04/M05 A2966 RMK AO2 T10371047
Observed Flight Rules
Jan-19 @ 06:55 UTC (23 minutes ago) Visual Flight Rules
Wind Visibility Clouds
240° at 5 knots 10 miles
  • Clear skies
Temperatures Readings
Current -4°C / 25°F
Dewpoint -5°C / 23°F
Humidity 93%
Altimeter 29.66" Hg
Pressure 1004 hPa
Elevation 206
METAR KSUW 190655Z AUTO 24005KT 10SM CLR M04/M05 A2966 RMK AO2 T10371047
Observed Flight Rules
Jan-19 @ 06:55 UTC
(23 minutes ago)
VFR
Wind Visibility
240° at 5 knots 10 miles
Clouds
  • Clear skies
Temperature Dewpoint
-4°C / 25°F -5°C / 23°F
Humidity Altimeter Pressure
93% 29.66" Hg 1004 hPa